sensor_id;sensor_type;location;lat;lon;timestamp;P1;durP1;ratioP1;P2;durP2;ratioP2
52434;SDS011;38354;52.892;6.148;2024-02-26T04:01:35;46.42;;;18.75;;
52434;SDS011;38354;52.892;6.148;2024-02-26T04:08:38;47.28;;;17.95;;
52434;SDS011;38354;52.892;6.148;2024-02-26T04:16:05;39.80;;;16.85;;
52434;SDS011;38354;52.892;6.148;2024-02-26T04:42:56;31.52;;;13.73;;
52434;SDS011;38354;52.892;6.148;2024-02-26T04:46:34;27.40;;;12.55;;
52434;SDS011;38354;52.892;6.148;2024-02-26T05:00:37;30.48;;;12.45;;
52434;SDS011;38354;52.892;6.148;2024-02-26T05:03:03;25.33;;;11.57;;
52434;SDS011;38354;52.892;6.148;2024-02-26T05:05:31;29.25;;;12.38;;
52434;SDS011;38354;52.892;6.148;2024-02-26T05:08:00;25.35;;;11.35;;
52434;SDS011;38354;52.892;6.148;2024-02-26T05:10:27;27.85;;;11.98;;
52434;SDS011;38354;52.892;6.148;2024-02-26T05:13:01;28.45;;;12.13;;
52434;SDS011;38354;52.892;6.148;2024-02-26T05:15:38;24.70;;;11.02;;
52434;SDS011;38354;52.892;6.148;2024-02-26T05:18:27;23.30;;;9.95;;
52434;SDS011;38354;52.892;6.148;2024-02-26T05:20:53;21.13;;;10.02;;
52434;SDS011;38354;52.892;6.148;2024-02-26T05:23:22;22.75;;;10.50;;
52434;SDS011;38354;52.892;6.148;2024-02-26T05:25:48;24.42;;;10.90;;
52434;SDS011;38354;52.892;6.148;2024-02-26T05:28:14;20.70;;;9.43;;
52434;SDS011;38354;52.892;6.148;2024-02-26T05:30:45;23.42;;;8.93;;
52434;SDS011;38354;52.892;6.148;2024-02-26T05:33:11;19.52;;;8.45;;
52434;SDS011;38354;52.892;6.148;2024-02-26T05:35:39;19.80;;;8.25;;
52434;SDS011;38354;52.892;6.148;2024-02-26T05:38:05;19.58;;;9.48;;
52434;SDS011;38354;52.892;6.148;2024-02-26T05:40:31;19.70;;;7.97;;
52434;SDS011;38354;52.892;6.148;2024-02-26T05:42:57;20.48;;;8.70;;
52434;SDS011;38354;52.892;6.148;2024-02-26T05:45:22;18.40;;;7.88;;
52434;SDS011;38354;52.892;6.148;2024-02-26T05:47:48;17.02;;;7.28;;
52434;SDS011;38354;52.892;6.148;2024-02-26T05:50:15;15.70;;;7.55;;
52434;SDS011;38354;52.892;6.148;2024-02-26T05:52:40;16.05;;;6.68;;
52434;SDS011;38354;52.892;6.148;2024-02-26T05:55:06;14.45;;;7.47;;
52434;SDS011;38354;52.892;6.148;2024-02-26T05:57:33;13.90;;;6.65;;
52434;SDS011;38354;52.892;6.148;2024-02-26T05:59:59;13.38;;;6.47;;
52434;SDS011;38354;52.892;6.148;2024-02-26T06:02:28;13.85;;;6.00;;
52434;SDS011;38354;52.892;6.148;2024-02-26T06:04:57;13.95;;;5.90;;
52434;SDS011;38354;52.892;6.148;2024-02-26T06:07:23;11.60;;;5.30;;
52434;SDS011;38354;52.892;6.148;2024-02-26T06:09:49;12.35;;;5.93;;
52434;SDS011;38354;52.892;6.148;2024-02-26T06:12:15;12.77;;;5.72;;
52434;SDS011;38354;52.892;6.148;2024-02-26T06:14:41;12.15;;;5.00;;
52434;SDS011;38354;52.892;6.148;2024-02-26T06:17:08;11.00;;;5.65;;
52434;SDS011;38354;52.892;6.148;2024-02-26T06:19:33;9.57;;;5.40;;
52434;SDS011;38354;52.892;6.148;2024-02-26T06:22:00;12.10;;;5.63;;
52434;SDS011;38354;52.892;6.148;2024-02-26T06:24:25;10.68;;;5.22;;
52434;SDS011;38354;52.892;6.148;2024-02-26T06:26:51;10.13;;;4.80;;
52434;SDS011;38354;52.892;6.148;2024-02-26T06:29:17;10.45;;;5.43;;
52434;SDS011;38354;52.892;6.148;2024-02-26T06:31:42;10.00;;;5.20;;
52434;SDS011;38354;52.892;6.148;2024-02-26T06:34:08;10.38;;;5.18;;
52434;SDS011;38354;52.892;6.148;2024-02-26T06:36:34;10.73;;;5.18;;
52434;SDS011;38354;52.892;6.148;2024-02-26T06:39:00;10.63;;;4.97;;
52434;SDS011;38354;52.892;6.148;2024-02-26T06:41:26;11.80;;;5.00;;
52434;SDS011;38354;52.892;6.148;2024-02-26T06:43:56;10.02;;;5.13;;
52434;SDS011;38354;52.892;6.148;2024-02-26T06:46:22;9.90;;;4.47;;
52434;SDS011;38354;52.892;6.148;2024-02-26T06:48:49;8.88;;;5.00;;
52434;SDS011;38354;52.892;6.148;2024-02-26T06:51:14;9.32;;;4.75;;
52434;SDS011;38354;52.892;6.148;2024-02-26T06:53:40;9.88;;;5.10;;
52434;SDS011;38354;52.892;6.148;2024-02-26T06:56:08;8.55;;;4.95;;
52434;SDS011;38354;52.892;6.148;2024-02-26T06:58:34;12.10;;;4.88;;
52434;SDS011;38354;52.892;6.148;2024-02-26T07:00:59;9.73;;;5.13;;
52434;SDS011;38354;52.892;6.148;2024-02-26T07:03:25;9.90;;;4.88;;
52434;SDS011;38354;52.892;6.148;2024-02-26T07:05:51;11.55;;;4.97;;
52434;SDS011;38354;52.892;6.148;2024-02-26T07:08:17;8.65;;;5.13;;
52434;SDS011;38354;52.892;6.148;2024-02-26T07:10:42;10.80;;;5.45;;
52434;SDS011;38354;52.892;6.148;2024-02-26T07:13:08;17.02;;;5.38;;
52434;SDS011;38354;52.892;6.148;2024-02-26T07:15:34;11.10;;;5.22;;
52434;SDS011;38354;52.892;6.148;2024-02-26T07:18:00;11.55;;;5.32;;
52434;SDS011;38354;52.892;6.148;2024-02-26T07:20:29;8.90;;;5.07;;
52434;SDS011;38354;52.892;6.148;2024-02-26T07:22:55;9.27;;;4.90;;
52434;SDS011;38354;52.892;6.148;2024-02-26T07:25:22;12.15;;;5.40;;
52434;SDS011;38354;52.892;6.148;2024-02-26T07:30:46;9.93;;;5.50;;
52434;SDS011;38354;52.892;6.148;2024-02-26T07:33:12;10.80;;;5.15;;
52434;SDS011;38354;52.892;6.148;2024-02-26T07:35:38;9.88;;;5.03;;
52434;SDS011;38354;52.892;6.148;2024-02-26T07:38:04;8.02;;;4.95;;
52434;SDS011;38354;52.892;6.148;2024-02-26T07:40:30;9.10;;;4.57;;
52434;SDS011;38354;52.892;6.148;2024-02-26T07:42:56;11.13;;;5.28;;
52434;SDS011;38354;52.892;6.148;2024-02-26T07:45:22;10.30;;;5.25;;
52434;SDS011;38354;52.892;6.148;2024-02-26T07:47:47;10.52;;;5.47;;
52434;SDS011;38354;52.892;6.148;2024-02-26T07:50:13;9.98;;;5.10;;
52434;SDS011;38354;52.892;6.148;2024-02-26T07:52:39;9.95;;;5.10;;
52434;SDS011;38354;52.892;6.148;2024-02-26T07:55:05;12.43;;;5.40;;
52434;SDS011;38354;52.892;6.148;2024-02-26T07:57:34;10.45;;;5.25;;
52434;SDS011;38354;52.892;6.148;2024-02-26T08:00:01;11.07;;;5.68;;
52434;SDS011;38354;52.892;6.148;2024-02-26T08:02:34;10.15;;;5.10;;
52434;SDS011;38354;52.892;6.148;2024-02-26T08:05:00;11.00;;;5.40;;
52434;SDS011;38354;52.892;6.148;2024-02-26T08:07:25;10.18;;;5.07;;
52434;SDS011;38354;52.892;6.148;2024-02-26T08:09:51;10.60;;;4.95;;
52434;SDS011;38354;52.892;6.148;2024-02-26T08:12:17;11.07;;;5.63;;
52434;SDS011;38354;52.892;6.148;2024-02-26T08:14:43;11.32;;;5.43;;
52434;SDS011;38354;52.892;6.148;2024-02-26T08:17:09;7.63;;;4.45;;
52434;SDS011;38354;52.892;6.148;2024-02-26T08:19:35;9.05;;;5.05;;
52434;SDS011;38354;52.892;6.148;2024-02-26T08:22:01;12.32;;;5.35;;
52434;SDS011;38354;52.892;6.148;2024-02-26T08:24:27;9.05;;;5.05;;
52434;SDS011;38354;52.892;6.148;2024-02-26T08:26:53;9.55;;;4.70;;
52434;SDS011;38354;52.892;6.148;2024-02-26T08:29:19;8.93;;;5.05;;
52434;SDS011;38354;52.892;6.148;2024-02-26T08:31:45;9.50;;;4.80;;
52434;SDS011;38354;52.892;6.148;2024-02-26T08:34:10;10.63;;;5.13;;
52434;SDS011;38354;52.892;6.148;2024-02-26T08:36:36;8.05;;;4.40;;
52434;SDS011;38354;52.892;6.148;2024-02-26T08:39:02;7.43;;;4.30;;
52434;SDS011;38354;52.892;6.148;2024-02-26T08:41:28;9.10;;;4.45;;
52434;SDS011;38354;52.892;6.148;2024-02-26T08:43:54;10.00;;;4.85;;
52434;SDS011;38354;52.892;6.148;2024-02-26T08:46:19;8.38;;;4.47;;
52434;SDS011;38354;52.892;6.148;2024-02-26T08:48:45;7.10;;;4.43;;
52434;SDS011;38354;52.892;6.148;2024-02-26T08:51:11;9.57;;;4.75;;
52434;SDS011;38354;52.892;6.148;2024-02-26T08:53:38;9.25;;;4.55;;
52434;SDS011;38354;52.892;6.148;2024-02-26T08:56:04;9.65;;;4.82;;
52434;SDS011;38354;52.892;6.148;2024-02-26T08:58:30;9.48;;;4.28;;
52434;SDS011;38354;52.892;6.148;2024-02-26T09:00:56;8.48;;;4.07;;
52434;SDS011;38354;52.892;6.148;2024-02-26T09:03:22;10.50;;;4.63;;
52434;SDS011;38354;52.892;6.148;2024-02-26T09:05:47;7.35;;;4.07;;
52434;SDS011;38354;52.892;6.148;2024-02-26T09:08:14;10.60;;;4.80;;
52434;SDS011;38354;52.892;6.148;2024-02-26T09:10:40;9.27;;;4.63;;
52434;SDS011;38354;52.892;6.148;2024-02-26T09:13:05;8.00;;;4.25;;
52434;SDS011;38354;52.892;6.148;2024-02-26T09:15:31;8.70;;;4.15;;
52434;SDS011;38354;52.892;6.148;2024-02-26T09:18:00;7.18;;;4.25;;
52434;SDS011;38354;52.892;6.148;2024-02-26T09:20:26;8.73;;;4.22;;
52434;SDS011;38354;52.892;6.148;2024-02-26T09:22:52;8.52;;;4.50;;
52434;SDS011;38354;52.892;6.148;2024-02-26T09:25:18;11.55;;;5.05;;
52434;SDS011;38354;52.892;6.148;2024-02-26T09:27:44;8.68;;;4.07;;
52434;SDS011;38354;52.892;6.148;2024-02-26T09:30:10;7.18;;;4.28;;
52434;SDS011;38354;52.892;6.148;2024-02-26T09:32:37;6.72;;;4.05;;
52434;SDS011;38354;52.892;6.148;2024-02-26T09:35:03;7.45;;;3.83;;
52434;SDS011;38354;52.892;6.148;2024-02-26T09:37:29;6.57;;;4.00;;
52434;SDS011;38354;52.892;6.148;2024-02-26T09:39:55;6.75;;;3.92;;
52434;SDS011;38354;52.892;6.148;2024-02-26T09:42:21;10.02;;;4.50;;
52434;SDS011;38354;52.892;6.148;2024-02-26T09:44:51;8.02;;;4.38;;
52434;SDS011;38354;52.892;6.148;2024-02-26T09:47:25;6.20;;;3.88;;
52434;SDS011;38354;52.892;6.148;2024-02-26T09:49:53;8.00;;;4.03;;
52434;SDS011;38354;52.892;6.148;2024-02-26T09:52:21;8.10;;;4.10;;
52434;SDS011;38354;52.892;6.148;2024-02-26T09:54:49;6.43;;;3.75;;
52434;SDS011;38354;52.892;6.148;2024-02-26T09:57:15;8.60;;;3.75;;
52434;SDS011;38354;52.892;6.148;2024-02-26T09:59:42;7.65;;;3.90;;
52434;SDS011;38354;52.892;6.148;2024-02-26T10:02:11;8.63;;;4.15;;
52434;SDS011;38354;52.892;6.148;2024-02-26T10:04:41;8.50;;;3.92;;
52434;SDS011;38354;52.892;6.148;2024-02-26T10:07:11;7.25;;;3.90;;
52434;SDS011;38354;52.892;6.148;2024-02-26T10:09:40;8.20;;;3.70;;
52434;SDS011;38354;52.892;6.148;2024-02-26T10:12:06;6.25;;;4.05;;
52434;SDS011;38354;52.892;6.148;2024-02-26T10:14:35;8.40;;;4.20;;
52434;SDS011;38354;52.892;6.148;2024-02-26T10:17:01;7.53;;;3.80;;
52434;SDS011;38354;52.892;6.148;2024-02-26T10:19:27;6.10;;;3.67;;
52434;SDS011;38354;52.892;6.148;2024-02-26T10:21:58;6.88;;;3.83;;
52434;SDS011;38354;52.892;6.148;2024-02-26T10:24:26;5.78;;;3.50;;
52434;SDS011;38354;52.892;6.148;2024-02-26T10:26:52;5.75;;;3.60;;
52434;SDS011;38354;52.892;6.148;2024-02-26T10:29:19;6.65;;;3.20;;
52434;SDS011;38354;52.892;6.148;2024-02-26T10:31:46;4.72;;;2.78;;
52434;SDS011;38354;52.892;6.148;2024-02-26T10:34:12;5.00;;;3.28;;
52434;SDS011;38354;52.892;6.148;2024-02-26T10:36:39;8.90;;;3.35;;
52434;SDS011;38354;52.892;6.148;2024-02-26T10:39:09;6.28;;;3.63;;
52434;SDS011;38354;52.892;6.148;2024-02-26T10:41:47;6.60;;;3.42;;
52434;SDS011;38354;52.892;6.148;2024-02-26T10:44:12;5.93;;;2.90;;
52434;SDS011;38354;52.892;6.148;2024-02-26T10:46:39;5.57;;;3.20;;
52434;SDS011;38354;52.892;6.148;2024-02-26T10:49:08;5.97;;;3.00;;
52434;SDS011;38354;52.892;6.148;2024-02-26T10:51:44;5.10;;;3.08;;
52434;SDS011;38354;52.892;6.148;2024-02-26T10:54:11;6.20;;;3.30;;
52434;SDS011;38354;52.892;6.148;2024-02-26T10:56:41;7.80;;;3.25;;
52434;SDS011;38354;52.892;6.148;2024-02-26T10:59:09;5.78;;;3.00;;
52434;SDS011;38354;52.892;6.148;2024-02-26T11:01:35;7.05;;;3.53;;
52434;SDS011;38354;52.892;6.148;2024-02-26T11:04:05;5.70;;;2.95;;
52434;SDS011;38354;52.892;6.148;2024-02-26T11:06:31;6.00;;;3.13;;
52434;SDS011;38354;52.892;6.148;2024-02-26T11:08:59;8.02;;;3.40;;
52434;SDS011;38354;52.892;6.148;2024-02-26T11:11:27;8.13;;;2.80;;
52434;SDS011;38354;52.892;6.148;2024-02-26T11:13:57;5.95;;;2.78;;
52434;SDS011;38354;52.892;6.148;2024-02-26T11:16:24;8.68;;;3.10;;
52434;SDS011;38354;52.892;6.148;2024-02-26T11:18:52;5.43;;;2.90;;
52434;SDS011;38354;52.892;6.148;2024-02-26T11:21:22;4.18;;;2.70;;
52434;SDS011;38354;52.892;6.148;2024-02-26T11:23:53;4.60;;;2.80;;
52434;SDS011;38354;52.892;6.148;2024-02-26T11:26:19;5.35;;;2.67;;
52434;SDS011;38354;52.892;6.148;2024-02-26T11:28:46;7.63;;;2.60;;
52434;SDS011;38354;52.892;6.148;2024-02-26T11:31:13;4.78;;;2.72;;
52434;SDS011;38354;52.892;6.148;2024-02-26T11:33:39;6.03;;;2.63;;
52434;SDS011;38354;52.892;6.148;2024-02-26T11:36:11;4.43;;;3.10;;
52434;SDS011;38354;52.892;6.148;2024-02-26T11:38:39;4.85;;;2.70;;
52434;SDS011;38354;52.892;6.148;2024-02-26T11:41:05;5.50;;;2.85;;
52434;SDS011;38354;52.892;6.148;2024-02-26T11:46:24;4.55;;;2.40;;
52434;SDS011;38354;52.892;6.148;2024-02-26T11:48:51;5.00;;;2.30;;
52434;SDS011;38354;52.892;6.148;2024-02-26T11:51:19;6.18;;;2.75;;
52434;SDS011;38354;52.892;6.148;2024-02-26T11:53:50;5.50;;;2.75;;
52434;SDS011;38354;52.892;6.148;2024-02-26T11:58:42;4.47;;;2.65;;
52434;SDS011;38354;52.892;6.148;2024-02-26T12:04:16;5.47;;;2.03;;
52434;SDS011;38354;52.892;6.148;2024-02-26T12:06:45;5.25;;;2.40;;
52434;SDS011;38354;52.892;6.148;2024-02-26T12:09:39;3.42;;;2.00;;
52434;SDS011;38354;52.892;6.148;2024-02-26T12:12:07;5.38;;;2.30;;
52434;SDS011;38354;52.892;6.148;2024-02-26T12:14:38;4.35;;;2.05;;
52434;SDS011;38354;52.892;6.148;2024-02-26T12:17:04;4.07;;;2.20;;
52434;SDS011;38354;52.892;6.148;2024-02-26T12:19:33;5.97;;;2.33;;
52434;SDS011;38354;52.892;6.148;2024-02-26T12:22:00;4.20;;;2.00;;
52434;SDS011;38354;52.892;6.148;2024-02-26T12:24:26;4.25;;;2.30;;
52434;SDS011;38354;52.892;6.148;2024-02-26T12:26:51;4.15;;;2.40;;
52434;SDS011;38354;52.892;6.148;2024-02-26T12:29:17;5.97;;;2.80;;
52434;SDS011;38354;52.892;6.148;2024-02-26T12:31:43;5.30;;;2.55;;
52434;SDS011;38354;52.892;6.148;2024-02-26T12:34:09;7.03;;;3.00;;
52434;SDS011;38354;52.892;6.148;2024-02-26T12:36:35;6.10;;;2.53;;
52434;SDS011;38354;52.892;6.148;2024-02-26T12:39:04;5.00;;;2.85;;
52434;SDS011;38354;52.892;6.148;2024-02-26T12:41:33;4.45;;;2.63;;
52434;SDS011;38354;52.892;6.148;2024-02-26T12:43:59;8.52;;;3.00;;
52434;SDS011;38354;52.892;6.148;2024-02-26T12:46:25;4.38;;;2.92;;
52434;SDS011;38354;52.892;6.148;2024-02-26T12:48:51;5.50;;;3.03;;
52434;SDS011;38354;52.892;6.148;2024-02-26T12:51:16;5.78;;;3.40;;
52434;SDS011;38354;52.892;6.148;2024-02-26T12:53:46;6.15;;;2.83;;
52434;SDS011;38354;52.892;6.148;2024-02-26T12:56:15;6.82;;;3.25;;
52434;SDS011;38354;52.892;6.148;2024-02-26T12:58:41;4.80;;;3.10;;
52434;SDS011;38354;52.892;6.148;2024-02-26T13:01:07;6.38;;;3.20;;
52434;SDS011;38354;52.892;6.148;2024-02-26T13:03:40;4.82;;;2.97;;
52434;SDS011;38354;52.892;6.148;2024-02-26T13:06:06;7.10;;;3.40;;
52434;SDS011;38354;52.892;6.148;2024-02-26T13:08:32;7.53;;;3.85;;
52434;SDS011;38354;52.892;6.148;2024-02-26T13:10:59;6.18;;;3.72;;
52434;SDS011;38354;52.892;6.148;2024-02-26T13:13:25;6.15;;;3.42;;
52434;SDS011;38354;52.892;6.148;2024-02-26T13:16:01;6.70;;;3.38;;
52434;SDS011;38354;52.892;6.148;2024-02-26T13:18:28;11.90;;;3.80;;
52434;SDS011;38354;52.892;6.148;2024-02-26T13:21:06;7.35;;;4.22;;
52434;SDS011;38354;52.892;6.148;2024-02-26T13:23:34;8.57;;;4.38;;
52434;SDS011;38354;52.892;6.148;2024-02-26T13:26:00;6.53;;;3.70;;
52434;SDS011;38354;52.892;6.148;2024-02-26T13:28:25;6.80;;;3.97;;
52434;SDS011;38354;52.892;6.148;2024-02-26T13:30:56;9.95;;;4.00;;
52434;SDS011;38354;52.892;6.148;2024-02-26T13:33:23;6.70;;;3.80;;
52434;SDS011;38354;52.892;6.148;2024-02-26T13:35:49;8.50;;;3.83;;
52434;SDS011;38354;52.892;6.148;2024-02-26T13:38:15;6.65;;;4.20;;
52434;SDS011;38354;52.892;6.148;2024-02-26T13:40:42;7.18;;;3.88;;
52434;SDS011;38354;52.892;6.148;2024-02-26T13:43:08;9.90;;;4.65;;
52434;SDS011;38354;52.892;6.148;2024-02-26T13:45:34;6.53;;;3.97;;
52434;SDS011;38354;52.892;6.148;2024-02-26T13:48:07;7.82;;;4.57;;
52434;SDS011;38354;52.892;6.148;2024-02-26T13:50:40;8.70;;;4.40;;
52434;SDS011;38354;52.892;6.148;2024-02-26T13:53:10;9.23;;;4.90;;
52434;SDS011;38354;52.892;6.148;2024-02-26T13:55:37;9.20;;;4.78;;
52434;SDS011;38354;52.892;6.148;2024-02-26T13:58:05;9.65;;;4.80;;
52434;SDS011;38354;52.892;6.148;2024-02-26T14:00:32;9.10;;;4.70;;
52434;SDS011;38354;52.892;6.148;2024-02-26T14:02:59;8.23;;;4.40;;
52434;SDS011;38354;52.892;6.148;2024-02-26T14:05:25;9.88;;;4.60;;
52434;SDS011;38354;52.892;6.148;2024-02-26T14:07:50;11.55;;;4.50;;
52434;SDS011;38354;52.892;6.148;2024-02-26T14:10:17;12.60;;;4.95;;
52434;SDS011;38354;52.892;6.148;2024-02-26T14:12:42;8.43;;;4.88;;
52434;SDS011;38354;52.892;6.148;2024-02-26T14:15:08;11.85;;;4.95;;
52434;SDS011;38354;52.892;6.148;2024-02-26T14:17:35;8.05;;;4.40;;
52434;SDS011;38354;52.892;6.148;2024-02-26T14:20:01;9.55;;;4.80;;
52434;SDS011;38354;52.892;6.148;2024-02-26T14:22:28;9.10;;;4.40;;
52434;SDS011;38354;52.892;6.148;2024-02-26T14:24:55;9.98;;;4.57;;
52434;SDS011;38354;52.892;6.148;2024-02-26T14:27:21;8.25;;;5.13;;
52434;SDS011;38354;52.892;6.148;2024-02-26T14:29:48;9.27;;;4.85;;
52434;SDS011;38354;52.892;6.148;2024-02-26T14:32:13;8.82;;;4.68;;
52434;SDS011;38354;52.892;6.148;2024-02-26T14:34:39;9.48;;;5.40;;
52434;SDS011;38354;52.892;6.148;2024-02-26T14:37:05;8.95;;;4.93;;
52434;SDS011;38354;52.892;6.148;2024-02-26T14:39:31;8.18;;;4.43;;
52434;SDS011;38354;52.892;6.148;2024-02-26T14:41:57;8.57;;;5.05;;
52434;SDS011;38354;52.892;6.148;2024-02-26T14:44:24;10.70;;;4.35;;
52434;SDS011;38354;52.892;6.148;2024-02-26T14:46:50;7.60;;;4.55;;
52434;SDS011;38354;52.892;6.148;2024-02-26T14:49:16;9.77;;;5.15;;
52434;SDS011;38354;52.892;6.148;2024-02-26T14:51:42;11.90;;;5.00;;
52434;SDS011;38354;52.892;6.148;2024-02-26T14:54:11;11.93;;;5.93;;
52434;SDS011;38354;52.892;6.148;2024-02-26T14:56:37;10.23;;;5.93;;
52434;SDS011;38354;52.892;6.148;2024-02-26T14:59:03;8.27;;;4.97;;
52434;SDS011;38354;52.892;6.148;2024-02-26T15:01:28;8.40;;;5.20;;
52434;SDS011;38354;52.892;6.148;2024-02-26T15:03:54;11.20;;;5.78;;
52434;SDS011;38354;52.892;6.148;2024-02-26T15:06:20;9.82;;;5.18;;
52434;SDS011;38354;52.892;6.148;2024-02-26T15:08:46;12.73;;;6.32;;
52434;SDS011;38354;52.892;6.148;2024-02-26T15:11:12;9.82;;;5.75;;
52434;SDS011;38354;52.892;6.148;2024-02-26T15:13:38;10.30;;;6.28;;
52434;SDS011;38354;52.892;6.148;2024-02-26T15:16:04;11.32;;;5.93;;
52434;SDS011;38354;52.892;6.148;2024-02-26T15:18:31;10.98;;;6.43;;
52434;SDS011;38354;52.892;6.148;2024-02-26T15:20:56;14.07;;;7.13;;
52434;SDS011;38354;52.892;6.148;2024-02-26T15:23:22;9.48;;;6.45;;
52434;SDS011;38354;52.892;6.148;2024-02-26T15:25:48;11.88;;;6.03;;
52434;SDS011;38354;52.892;6.148;2024-02-26T15:28:13;10.98;;;5.90;;
52434;SDS011;38354;52.892;6.148;2024-02-26T15:30:40;10.48;;;5.70;;
52434;SDS011;38354;52.892;6.148;2024-02-26T15:33:06;10.90;;;5.82;;
52434;SDS011;38354;52.892;6.148;2024-02-26T15:35:32;12.20;;;6.32;;
52434;SDS011;38354;52.892;6.148;2024-02-26T15:37:57;10.43;;;5.95;;
52434;SDS011;38354;52.892;6.148;2024-02-26T15:40:23;11.23;;;6.07;;
52434;SDS011;38354;52.892;6.148;2024-02-26T15:42:49;13.80;;;5.93;;
52434;SDS011;38354;52.892;6.148;2024-02-26T15:45:15;12.10;;;5.40;;
52434;SDS011;38354;52.892;6.148;2024-02-26T15:47:41;11.95;;;5.85;;
52434;SDS011;38354;52.892;6.148;2024-02-26T15:50:07;12.48;;;6.18;;
52434;SDS011;38354;52.892;6.148;2024-02-26T15:52:35;9.23;;;5.75;;
52434;SDS011;38354;52.892;6.148;2024-02-26T15:55:01;11.05;;;5.72;;
52434;SDS011;38354;52.892;6.148;2024-02-26T15:57:27;11.50;;;5.55;;
52434;SDS011;38354;52.892;6.148;2024-02-26T15:59:52;10.07;;;5.00;;
52434;SDS011;38354;52.892;6.148;2024-02-26T16:02:19;9.63;;;5.15;;
52434;SDS011;38354;52.892;6.148;2024-02-26T16:04:46;11.25;;;5.30;;
52434;SDS011;38354;52.892;6.148;2024-02-26T16:07:15;9.57;;;5.38;;
52434;SDS011;38354;52.892;6.148;2024-02-26T16:09:50;9.95;;;5.35;;
52434;SDS011;38354;52.892;6.148;2024-02-26T16:12:19;10.32;;;5.50;;
52434;SDS011;38354;52.892;6.148;2024-02-26T16:14:51;11.68;;;5.57;;
52434;SDS011;38354;52.892;6.148;2024-02-26T16:17:19;9.57;;;5.03;;
52434;SDS011;38354;52.892;6.148;2024-02-26T16:19:48;10.32;;;5.20;;
52434;SDS011;38354;52.892;6.148;2024-02-26T16:22:16;10.77;;;5.38;;
52434;SDS011;38354;52.892;6.148;2024-02-26T16:24:41;11.07;;;5.75;;
52434;SDS011;38354;52.892;6.148;2024-02-26T16:27:07;13.43;;;6.20;;
52434;SDS011;38354;52.892;6.148;2024-02-26T16:29:33;11.60;;;5.68;;
52434;SDS011;38354;52.892;6.148;2024-02-26T16:31:58;10.05;;;5.70;;
52434;SDS011;38354;52.892;6.148;2024-02-26T16:34:24;11.55;;;5.22;;
52434;SDS011;38354;52.892;6.148;2024-02-26T16:36:50;9.77;;;5.03;;
52434;SDS011;38354;52.892;6.148;2024-02-26T16:39:16;10.70;;;5.45;;
52434;SDS011;38354;52.892;6.148;2024-02-26T16:41:42;12.63;;;5.50;;
52434;SDS011;38354;52.892;6.148;2024-02-26T16:44:08;12.48;;;5.18;;
52434;SDS011;38354;52.892;6.148;2024-02-26T16:46:33;9.38;;;5.30;;
52434;SDS011;38354;52.892;6.148;2024-02-26T16:48:59;10.13;;;5.07;;
52434;SDS011;38354;52.892;6.148;2024-02-26T16:51:25;10.25;;;5.20;;
52434;SDS011;38354;52.892;6.148;2024-02-26T16:53:51;11.32;;;5.38;;
52434;SDS011;38354;52.892;6.148;2024-02-26T16:56:16;11.52;;;5.13;;
52434;SDS011;38354;52.892;6.148;2024-02-26T16:58:42;10.88;;;5.90;;
52434;SDS011;38354;52.892;6.148;2024-02-26T17:01:08;9.63;;;5.38;;
52434;SDS011;38354;52.892;6.148;2024-02-26T17:03:33;11.65;;;5.45;;
52434;SDS011;38354;52.892;6.148;2024-02-26T17:05:59;9.52;;;5.70;;
52434;SDS011;38354;52.892;6.148;2024-02-26T17:08:25;9.80;;;5.68;;
52434;SDS011;38354;52.892;6.148;2024-02-26T17:10:51;14.20;;;5.90;;
52434;SDS011;38354;52.892;6.148;2024-02-26T17:13:17;11.88;;;5.68;;
52434;SDS011;38354;52.892;6.148;2024-02-26T17:15:43;10.05;;;5.70;;
52434;SDS011;38354;52.892;6.148;2024-02-26T17:18:09;8.95;;;5.10;;
52434;SDS011;38354;52.892;6.148;2024-02-26T17:20:41;10.45;;;5.65;;
52434;SDS011;38354;52.892;6.148;2024-02-26T17:23:06;9.52;;;6.03;;
52434;SDS011;38354;52.892;6.148;2024-02-26T17:25:32;11.52;;;6.07;;
52434;SDS011;38354;52.892;6.148;2024-02-26T17:27:58;11.05;;;5.88;;
52434;SDS011;38354;52.892;6.148;2024-02-26T17:30:23;15.13;;;6.32;;
52434;SDS011;38354;52.892;6.148;2024-02-26T17:32:50;9.50;;;5.85;;
52434;SDS011;38354;52.892;6.148;2024-02-26T17:35:16;12.50;;;6.32;;
52434;SDS011;38354;52.892;6.148;2024-02-26T17:37:42;12.73;;;6.43;;
52434;SDS011;38354;52.892;6.148;2024-02-26T17:40:11;13.00;;;6.55;;
52434;SDS011;38354;52.892;6.148;2024-02-26T17:42:37;10.77;;;6.03;;
52434;SDS011;38354;52.892;6.148;2024-02-26T17:45:03;13.50;;;6.53;;
52434;SDS011;38354;52.892;6.148;2024-02-26T17:47:29;13.85;;;7.30;;
52434;SDS011;38354;52.892;6.148;2024-02-26T17:49:55;15.57;;;6.68;;
52434;SDS011;38354;52.892;6.148;2024-02-26T17:52:21;13.60;;;7.00;;
52434;SDS011;38354;52.892;6.148;2024-02-26T17:54:47;13.02;;;6.93;;
52434;SDS011;38354;52.892;6.148;2024-02-26T17:57:12;12.55;;;6.88;;
52434;SDS011;38354;52.892;6.148;2024-02-26T17:59:38;17.98;;;6.93;;
52434;SDS011;38354;52.892;6.148;2024-02-26T18:02:03;14.10;;;7.03;;
52434;SDS011;38354;52.892;6.148;2024-02-26T18:04:30;16.38;;;7.07;;
52434;SDS011;38354;52.892;6.148;2024-02-26T18:06:57;13.75;;;7.05;;
52434;SDS011;38354;52.892;6.148;2024-02-26T18:09:23;38.50;;;8.35;;
52434;SDS011;38354;52.892;6.148;2024-02-26T18:11:51;14.80;;;6.82;;
52434;SDS011;38354;52.892;6.148;2024-02-26T18:14:18;12.15;;;6.63;;
52434;SDS011;38354;52.892;6.148;2024-02-26T18:16:44;13.23;;;6.57;;
52434;SDS011;38354;52.892;6.148;2024-02-26T18:19:09;14.25;;;7.15;;
52434;SDS011;38354;52.892;6.148;2024-02-26T18:21:35;12.68;;;7.13;;
52434;SDS011;38354;52.892;6.148;2024-02-26T18:24:00;12.30;;;6.80;;
52434;SDS011;38354;52.892;6.148;2024-02-26T18:26:26;14.57;;;7.32;;
52434;SDS011;38354;52.892;6.148;2024-02-26T18:28:52;15.27;;;7.13;;
52434;SDS011;38354;52.892;6.148;2024-02-26T18:31:18;14.55;;;8.27;;
52434;SDS011;38354;52.892;6.148;2024-02-26T18:33:44;15.98;;;7.43;;
52434;SDS011;38354;52.892;6.148;2024-02-26T18:36:10;15.68;;;7.85;;
52434;SDS011;38354;52.892;6.148;2024-02-26T18:38:36;17.85;;;7.32;;
52434;SDS011;38354;52.892;6.148;2024-02-26T18:41:02;14.23;;;7.90;;
52434;SDS011;38354;52.892;6.148;2024-02-26T18:43:28;15.98;;;7.72;;
52434;SDS011;38354;52.892;6.148;2024-02-26T18:45:54;15.85;;;7.38;;
52434;SDS011;38354;52.892;6.148;2024-02-26T18:48:22;16.98;;;7.90;;
52434;SDS011;38354;52.892;6.148;2024-02-26T18:50:52;15.20;;;7.75;;
52434;SDS011;38354;52.892;6.148;2024-02-26T18:53:18;14.35;;;7.85;;
52434;SDS011;38354;52.892;6.148;2024-02-26T18:55:43;14.90;;;7.75;;
52434;SDS011;38354;52.892;6.148;2024-02-26T18:58:10;13.68;;;7.15;;
52434;SDS011;38354;52.892;6.148;2024-02-26T19:00:35;16.05;;;7.80;;
52434;SDS011;38354;52.892;6.148;2024-02-26T19:03:02;14.73;;;7.72;;
52434;SDS011;38354;52.892;6.148;2024-02-26T19:05:28;18.45;;;7.75;;
52434;SDS011;38354;52.892;6.148;2024-02-26T19:07:56;13.93;;;6.97;;
52434;SDS011;38354;52.892;6.148;2024-02-26T19:10:26;17.58;;;8.15;;
52434;SDS011;38354;52.892;6.148;2024-02-26T19:12:52;14.27;;;7.43;;
52434;SDS011;38354;52.892;6.148;2024-02-26T19:15:17;19.63;;;8.18;;
52434;SDS011;38354;52.892;6.148;2024-02-26T19:17:45;14.82;;;7.68;;
52434;SDS011;38354;52.892;6.148;2024-02-26T19:20:11;15.70;;;7.65;;
52434;SDS011;38354;52.892;6.148;2024-02-26T19:22:37;12.95;;;7.10;;
52434;SDS011;38354;52.892;6.148;2024-02-26T19:25:10;15.38;;;6.95;;
52434;SDS011;38354;52.892;6.148;2024-02-26T19:27:37;13.23;;;6.88;;
52434;SDS011;38354;52.892;6.148;2024-02-26T19:30:02;12.18;;;6.95;;
52434;SDS011;38354;52.892;6.148;2024-02-26T19:32:29;13.90;;;7.45;;
52434;SDS011;38354;52.892;6.148;2024-02-26T19:34:56;13.80;;;7.43;;
52434;SDS011;38354;52.892;6.148;2024-02-26T19:37:22;16.13;;;7.57;;